San Juan de Aznalfarache, Spain
Current Conditions -  °F | °C
As of 12:30 AM on Sunday 26 Oct 2014 (Local Time) from LEZL Reporting Station
Clear Clear  
Wind Chill: 63°   Ceiling: Unl
Heat Index: 63°   Visibility: 6mi
Dew Point: 52°   Wind: 2mph
Humidity: 68%   Direction: 130°SE
Pressure: 30.09"   Gusts: NA
Location:  37.36°N, 6.04°W
Report Text: LEZL 252230Z 13002KT CAVOK 17/11 Q1019 NOSIG
Loading
Personal Weather Stations






























Interactive Weather Map
Tropical Storm Tracking
New forecast layout! Learn more

10-Day Weather Forecast

Advertisements
Track Severe Weather on mobile